createdAt,value
2024-02-10T00:00:21.858Z,95.17
2024-02-10T00:02:53.201Z,92.31
2024-02-10T00:05:24.439Z,91.28
2024-02-10T00:07:56.844Z,90.85
2024-02-10T00:10:29.258Z,90.35
2024-02-10T00:13:01.736Z,90.18
2024-02-10T00:15:33.049Z,89.98
2024-02-10T00:18:11.569Z,90.17
2024-02-10T00:20:43.709Z,89.96
2024-02-10T00:23:15.500Z,90.09
2024-02-10T00:25:46.180Z,90.10
2024-02-10T00:28:18.132Z,90.24
2024-02-10T00:30:50.108Z,90.26
2024-02-10T00:33:20.766Z,90.50
2024-02-10T00:35:51.792Z,90.44
2024-02-10T00:38:22.864Z,90.50
2024-02-10T00:40:53.779Z,90.61
2024-02-10T00:43:24.715Z,90.43
2024-02-10T00:45:59.135Z,90.69
2024-02-10T00:48:29.986Z,90.73
2024-02-10T00:51:02.224Z,90.63
2024-02-10T00:53:32.903Z,90.71
2024-02-10T00:56:03.533Z,90.80
2024-02-10T00:58:34.411Z,91.01
2024-02-10T01:01:05.428Z,90.85
2024-02-10T01:03:36.936Z,90.87
2024-02-10T01:06:10.323Z,90.92
2024-02-10T01:08:42.094Z,90.95
2024-02-10T01:11:12.883Z,91.01
2024-02-10T01:13:45.089Z,91.15
2024-02-10T01:16:17.225Z,91.15
2024-02-10T01:18:50.675Z,91.23
2024-02-10T01:21:22.519Z,91.29
2024-02-10T01:23:53.414Z,91.45
2024-02-10T01:26:24.191Z,91.57
2024-02-10T01:28:54.980Z,91.61
2024-02-10T01:31:26.747Z,91.67
2024-02-10T01:33:57.382Z,91.85
2024-02-10T01:36:30.301Z,91.97
2024-02-10T01:39:01.542Z,91.89
2024-02-10T01:41:32.369Z,92.08
2024-02-10T01:44:03.040Z,92.09
2024-02-10T01:46:34.379Z,92.34
2024-02-10T01:49:05.252Z,92.44
2024-02-10T01:51:36.415Z,92.35
2024-02-10T01:54:08.876Z,92.34
2024-02-10T01:56:40.762Z,92.45
2024-02-10T01:59:11.564Z,92.43
2024-02-10T02:01:47.124Z,92.48
2024-02-10T02:04:18.743Z,92.75
2024-02-10T02:06:50.636Z,92.60
2024-02-10T02:09:21.321Z,92.61
2024-02-10T02:11:52.534Z,92.69
2024-02-10T02:14:23.312Z,92.48
2024-02-10T02:16:54.370Z,92.63
2024-02-10T02:19:25.082Z,92.65
2024-02-10T02:21:55.769Z,92.63
2024-02-10T02:24:29.671Z,92.78
2024-02-10T02:27:01.012Z,92.80
2024-02-10T02:29:32.785Z,92.79
2024-02-10T02:32:04.278Z,92.70
2024-02-10T02:34:38.897Z,92.61
2024-02-10T02:37:09.767Z,92.67
2024-02-10T02:39:40.515Z,92.69
2024-02-10T02:42:11.697Z,92.58
2024-02-10T02:44:43.659Z,92.73
2024-02-10T02:47:14.471Z,92.79
2024-02-10T02:49:45.293Z,92.74
2024-02-10T02:52:16.174Z,92.82
2024-02-10T02:54:48.997Z,92.91
2024-02-10T02:57:19.810Z,93.13
2024-02-10T02:59:50.729Z,93.24
2024-02-10T03:02:22.505Z,93.54
2024-02-10T03:04:53.241Z,93.49
2024-02-10T03:07:24.317Z,92.99
2024-02-10T03:09:55.076Z,92.73
2024-02-10T03:12:25.833Z,92.82
2024-02-10T03:14:56.552Z,92.81
2024-02-10T03:17:31.857Z,92.80
2024-02-10T03:20:06.585Z,92.61
2024-02-10T03:22:37.980Z,92.83
2024-02-10T03:25:13.687Z,92.99
2024-02-10T03:27:45.810Z,93.31
2024-02-10T03:30:17.644Z,93.36
2024-02-10T03:32:50.159Z,93.09
2024-02-10T03:35:21.032Z,93.03
2024-02-10T03:37:51.971Z,93.01
2024-02-10T03:40:23.213Z,93.54
2024-02-10T03:42:54.072Z,93.64
2024-02-10T03:45:27.049Z,94.30
2024-02-10T03:48:06.508Z,94.71
2024-02-10T03:50:37.527Z,94.45
2024-02-10T03:53:08.446Z,94.14
2024-02-10T03:55:39.637Z,94.47
2024-02-10T03:58:13.053Z,94.07
2024-02-10T04:00:45.250Z,94.20
2024-02-10T04:03:16.008Z,94.13
2024-02-10T04:05:47.880Z,94.54
2024-02-10T04:08:20.371Z,94.60
2024-02-10T04:10:51.108Z,94.40
2024-02-10T04:13:23.055Z,94.37
2024-02-10T04:15:54.084Z,94.18
2024-02-10T04:18:29.020Z,94.10
2024-02-10T04:21:02.622Z,94.22
2024-02-10T04:23:33.773Z,94.21
2024-02-10T04:26:06.512Z,94.42
2024-02-10T04:28:37.437Z,94.15
2024-02-10T04:31:08.894Z,94.30
2024-02-10T04:33:39.829Z,93.22
2024-02-10T04:36:13.587Z,93.30
2024-02-10T04:38:44.246Z,92.80
2024-02-10T04:41:14.868Z,92.21
2024-02-10T04:43:45.558Z,91.63
2024-02-10T04:46:18.266Z,91.60
2024-02-10T04:48:49.390Z,91.63
2024-02-10T04:51:20.509Z,91.44
2024-02-10T04:53:51.228Z,91.86
2024-02-10T04:56:22.465Z,91.85
2024-02-10T04:58:53.154Z,92.16
2024-02-10T05:01:33.773Z,92.17
2024-02-10T05:04:06.411Z,91.91
2024-02-10T05:06:38.394Z,91.46
2024-02-10T05:09:09.113Z,91.21
2024-02-10T05:11:39.764Z,91.47
2024-02-10T05:14:11.841Z,91.57
2024-02-10T05:16:42.863Z,91.75
2024-02-10T05:19:16.052Z,91.94
2024-02-10T05:21:46.910Z,92.39
2024-02-10T05:24:17.480Z,91.68
2024-02-10T05:26:50.864Z,91.42
2024-02-10T05:29:21.477Z,91.69
2024-02-10T05:31:52.187Z,91.76
2024-02-10T05:34:22.941Z,92.24
2024-02-10T05:36:54.365Z,92.22
2024-02-10T05:39:25.307Z,92.70
2024-02-10T05:41:56.123Z,92.51
2024-02-10T05:44:27.820Z,92.79
2024-02-10T05:47:02.086Z,92.85
2024-02-10T05:49:35.116Z,92.99
2024-02-10T05:52:07.346Z,92.61
2024-02-10T05:54:41.710Z,92.31
2024-02-10T05:57:17.895Z,92.31
2024-02-10T05:59:49.513Z,92.99
2024-02-10T06:02:22.749Z,93.21
2024-02-10T06:04:54.243Z,92.97
2024-02-10T06:07:27.858Z,93.27
2024-02-10T06:09:58.535Z,93.13
2024-02-10T06:12:29.613Z,93.27
2024-02-10T06:15:00.331Z,93.63
2024-02-10T06:17:36.039Z,94.15
2024-02-10T06:20:14.002Z,94.48
2024-02-10T06:22:47.801Z,94.43
2024-02-10T06:25:24.127Z,94.36
2024-02-10T06:27:56.044Z,94.44
2024-02-10T06:30:31.676Z,94.36
2024-02-10T06:33:05.285Z,94.37
2024-02-10T06:35:37.967Z,94.29
2024-02-10T06:38:11.582Z,94.33
2024-02-10T06:40:44.392Z,94.03
2024-02-10T06:43:15.331Z,94.01
2024-02-10T06:45:47.546Z,93.92
2024-02-10T06:48:20.297Z,93.72
2024-02-10T06:50:53.075Z,94.21
2024-02-10T06:53:24.307Z,94.31
2024-02-10T06:55:56.431Z,94.00
2024-02-10T06:58:27.342Z,94.02
2024-02-10T07:00:59.558Z,93.65
2024-02-10T07:03:33.259Z,93.81
2024-02-10T07:06:04.519Z,93.36
2024-02-10T07:08:35.528Z,93.40
2024-02-10T07:11:06.517Z,93.26
2024-02-10T07:13:38.229Z,92.99
2024-02-10T07:16:10.112Z,92.85
2024-02-10T07:18:42.915Z,92.93
2024-02-10T07:21:13.705Z,92.82
2024-02-10T07:23:45.617Z,92.66
2024-02-10T07:26:18.128Z,92.53
2024-02-10T07:28:52.937Z,92.61
2024-02-10T07:31:23.701Z,92.46
2024-02-10T07:34:00.081Z,92.45
2024-02-10T07:36:35.499Z,92.51
2024-02-10T07:39:08.338Z,92.09
2024-02-10T07:41:40.486Z,91.94
2024-02-10T07:44:14.466Z,91.89
2024-02-10T07:46:46.411Z,91.69
2024-02-10T07:49:20.823Z,91.48
2024-02-10T07:51:52.036Z,91.31
2024-02-10T07:54:23.725Z,91.35
2024-02-10T07:56:55.971Z,91.11
2024-02-10T07:59:27.852Z,91.11
2024-02-10T08:01:58.577Z,90.96
2024-02-10T08:04:29.239Z,91.16
2024-02-10T08:07:01.367Z,91.32
2024-02-10T08:09:32.068Z,91.22
2024-02-10T08:12:04.098Z,91.17
2024-02-10T08:14:37.640Z,91.02
2024-02-10T08:17:10.501Z,90.87
2024-02-10T08:19:43.387Z,90.59
2024-02-10T08:22:15.217Z,90.54
2024-02-10T08:24:47.144Z,89.72
2024-02-10T08:27:18.573Z,88.62
2024-02-10T08:29:49.474Z,87.93
2024-02-10T08:32:20.163Z,86.75
2024-02-10T08:34:52.424Z,86.07
2024-02-10T08:37:23.602Z,88.59
2024-02-10T08:39:54.225Z,88.14
2024-02-10T08:42:26.084Z,86.83
2024-02-10T08:44:57.126Z,86.13
2024-02-10T08:47:30.396Z,85.18
2024-02-10T08:50:02.998Z,82.13
2024-02-10T08:52:33.944Z,81.11
2024-02-10T08:55:08.345Z,80.39
2024-02-10T08:57:39.178Z,79.80
2024-02-10T09:00:12.826Z,78.99
2024-02-10T09:02:46.819Z,77.75
2024-02-10T09:05:17.676Z,74.58
2024-02-10T09:07:48.456Z,73.43
2024-02-10T09:10:19.246Z,72.77
2024-02-10T09:12:50.046Z,72.01
2024-02-10T09:15:21.992Z,71.05
2024-02-10T09:17:55.268Z,70.88
2024-02-10T09:20:32.419Z,70.31
2024-02-10T09:23:05.002Z,69.77
2024-02-10T09:25:38.647Z,69.72
2024-02-10T09:28:09.660Z,69.89
2024-02-10T09:30:41.755Z,69.13
2024-02-10T09:33:23.334Z,68.36
2024-02-10T09:35:56.335Z,67.90
2024-02-10T09:38:27.977Z,67.70
2024-02-10T09:40:59.817Z,67.95
2024-02-10T09:43:34.573Z,67.97
2024-02-10T09:46:09.191Z,67.49
2024-02-10T09:48:43.161Z,67.74
2024-02-10T09:51:14.357Z,67.76
2024-02-10T09:53:45.694Z,68.01
2024-02-10T09:56:17.909Z,67.70
2024-02-10T09:58:50.605Z,67.84
2024-02-10T10:01:21.567Z,67.96
2024-02-10T10:03:52.843Z,68.19
2024-02-10T10:06:25.379Z,67.56
2024-02-10T10:08:56.402Z,67.54
2024-02-10T10:11:28.689Z,67.57
2024-02-10T10:13:59.860Z,67.57
2024-02-10T10:16:30.751Z,67.96
2024-02-10T10:19:01.811Z,68.05
2024-02-10T10:21:33.691Z,68.61
2024-02-10T10:24:04.825Z,69.00
2024-02-10T10:26:38.046Z,69.16
2024-02-10T10:29:10.936Z,69.29
2024-02-10T10:31:45.600Z,69.72
2024-02-10T10:34:17.377Z,70.03
2024-02-10T10:36:50.424Z,69.92
2024-02-10T10:39:23.882Z,70.21
2024-02-10T10:41:57.258Z,70.14
2024-02-10T10:44:28.451Z,70.09
2024-02-10T10:47:01.822Z,69.88
2024-02-10T10:49:34.025Z,69.53
2024-02-10T10:52:06.932Z,68.93
2024-02-10T10:54:40.299Z,69.40
2024-02-10T10:57:15.398Z,69.20
2024-02-10T10:59:52.350Z,69.22
2024-02-10T11:02:37.158Z,68.71
2024-02-10T11:05:17.936Z,68.59
2024-02-10T11:07:51.099Z,68.50
2024-02-10T11:10:38.878Z,68.63
2024-02-10T11:13:20.880Z,68.00
2024-02-10T11:16:01.383Z,68.19
2024-02-10T11:18:30.506Z,68.52
2024-02-10T11:21:11.677Z,68.35
2024-02-10T11:23:42.481Z,68.32
2024-02-10T11:26:14.954Z,68.67
2024-02-10T11:28:45.959Z,68.55
2024-02-10T11:31:18.964Z,68.44
2024-02-10T11:33:49.819Z,68.75
2024-02-10T11:36:21.795Z,68.83
2024-02-10T11:38:52.453Z,68.91
2024-02-10T11:41:25.346Z,68.78
2024-02-10T11:43:56.189Z,69.02
2024-02-10T11:46:30.419Z,69.17
2024-02-10T11:49:02.176Z,69.41
2024-02-10T11:51:33.349Z,69.28
2024-02-10T11:54:04.425Z,69.00
2024-02-10T11:56:35.422Z,68.85
2024-02-10T11:59:06.424Z,68.72
2024-02-10T12:01:37.970Z,68.07
2024-02-10T12:04:09.399Z,68.38
2024-02-10T12:06:40.249Z,68.67
2024-02-10T12:09:11.562Z,68.63
2024-02-10T12:11:44.190Z,68.85
2024-02-10T12:14:16.189Z,68.82
2024-02-10T12:16:47.135Z,68.87
2024-02-10T12:19:20.931Z,68.92
2024-02-10T12:21:50.492Z,68.45
2024-02-10T12:24:23.579Z,68.17
2024-02-10T12:26:54.305Z,67.94
2024-02-10T12:29:26.897Z,67.78
2024-02-10T12:31:57.724Z,67.99
2024-02-10T12:34:28.660Z,68.24
2024-02-10T12:37:00.364Z,68.32
2024-02-10T12:39:31.361Z,67.64
2024-02-10T12:42:02.565Z,68.44
2024-02-10T12:44:36.678Z,68.11
2024-02-10T12:47:11.136Z,68.37
2024-02-10T12:49:45.235Z,68.02
2024-02-10T12:52:17.770Z,67.94
2024-02-10T12:54:49.634Z,68.31
2024-02-10T12:57:21.503Z,68.39
2024-02-10T12:59:54.821Z,68.42
2024-02-10T13:02:28.058Z,68.41
2024-02-10T13:04:59.875Z,68.48
2024-02-10T13:07:31.007Z,68.80
2024-02-10T13:10:02.747Z,68.80
2024-02-10T13:12:33.985Z,69.04
2024-02-10T13:15:05.925Z,69.17
2024-02-10T13:17:37.376Z,69.35
2024-02-10T13:20:11.607Z,69.49
2024-02-10T13:22:42.659Z,69.66
2024-02-10T13:25:13.788Z,69.70
2024-02-10T13:27:46.040Z,69.74
2024-02-10T13:30:19.088Z,69.77
2024-02-10T13:32:50.555Z,70.02
2024-02-10T13:35:25.167Z,70.13
2024-02-10T13:38:15.112Z,70.31
2024-02-10T13:41:03.623Z,70.30
2024-02-10T13:43:52.418Z,70.25
2024-02-10T13:46:41.072Z,70.23
2024-02-10T13:49:29.362Z,70.34
2024-02-10T13:52:18.022Z,70.22
2024-02-10T13:55:06.514Z,70.48
2024-02-10T13:57:55.242Z,70.72
2024-02-10T14:00:31.778Z,70.96
2024-02-10T14:03:03.633Z,71.08
2024-02-10T14:05:56.384Z,71.19
2024-02-10T14:08:43.094Z,71.21
2024-02-10T14:11:21.980Z,71.23
2024-02-10T14:13:54.995Z,71.24
2024-02-10T14:16:32.063Z,71.03
2024-02-10T14:19:07.317Z,70.85
2024-02-10T14:21:39.972Z,70.98
2024-02-10T14:24:16.926Z,71.00
2024-02-10T14:27:02.280Z,70.98
2024-02-10T14:29:35.996Z,71.13
2024-02-10T14:32:14.057Z,71.23
2024-02-10T14:35:05.053Z,71.36
2024-02-10T14:37:48.079Z,71.56
2024-02-10T14:40:35.283Z,71.77
2024-02-10T14:43:06.853Z,71.90
2024-02-10T14:45:39.779Z,72.08
2024-02-10T14:48:11.032Z,72.36
2024-02-10T14:50:42.101Z,72.47
2024-02-10T14:53:13.371Z,72.74
2024-02-10T14:55:44.357Z,72.90
2024-02-10T14:58:15.637Z,73.24
2024-02-10T15:00:46.605Z,73.45
2024-02-10T15:03:18.145Z,73.68
2024-02-10T15:05:50.228Z,73.87
2024-02-10T15:08:22.015Z,74.03
2024-02-10T15:10:53.292Z,74.23
2024-02-10T15:13:25.038Z,74.26
2024-02-10T15:15:55.855Z,74.45
2024-02-10T15:18:27.690Z,74.58
2024-02-10T15:20:58.936Z,74.53
2024-02-10T15:23:29.925Z,74.78
2024-02-10T15:26:01.767Z,74.68
2024-02-10T15:28:35.468Z,74.79
2024-02-10T15:31:07.200Z,74.74
2024-02-10T15:33:38.240Z,74.87
2024-02-10T15:36:26.306Z,74.94
2024-02-10T15:39:02.426Z,74.96
2024-02-10T15:41:35.008Z,75.06
2024-02-10T15:44:09.728Z,75.14
2024-02-10T15:46:42.636Z,75.15
2024-02-10T15:49:14.275Z,75.40
2024-02-10T15:51:45.166Z,75.55
2024-02-10T15:54:15.826Z,75.68
2024-02-10T15:56:47.568Z,75.81
2024-02-10T15:59:21.312Z,75.97
2024-02-10T16:01:57.830Z,75.88
2024-02-10T16:04:28.789Z,75.96
2024-02-10T16:06:59.773Z,76.15
2024-02-10T16:09:30.579Z,76.18
2024-02-10T16:12:01.681Z,76.24
2024-02-10T16:14:32.386Z,76.36
2024-02-10T16:17:04.049Z,76.36
2024-02-10T16:19:40.964Z,76.36
2024-02-10T16:22:11.913Z,76.24
2024-02-10T16:24:44.488Z,76.27
2024-02-10T16:27:15.224Z,76.32
2024-02-10T16:29:47.023Z,76.21
2024-02-10T16:32:17.776Z,76.31
2024-02-10T16:34:54.053Z,76.32
2024-02-10T16:37:25.080Z,76.43
2024-02-10T16:39:56.071Z,76.40
2024-02-10T16:42:27.005Z,76.43
2024-02-10T16:44:58.995Z,76.43
2024-02-10T16:47:29.846Z,76.57
2024-02-10T16:50:00.762Z,76.61
2024-02-10T16:52:33.071Z,76.64
2024-02-10T16:55:04.090Z,76.78
2024-02-10T16:57:35.119Z,76.84
2024-02-10T17:00:11.924Z,76.99
2024-02-10T17:02:42.766Z,77.00
2024-02-10T17:05:19.286Z,77.13
2024-02-10T17:07:54.109Z,77.17
2024-02-10T17:10:24.989Z,77.38
2024-02-10T17:12:55.694Z,77.60
2024-02-10T17:15:26.434Z,77.64
2024-02-10T17:17:57.338Z,77.91
2024-02-10T17:20:29.854Z,78.15
2024-02-10T17:23:00.848Z,78.22
2024-02-10T17:25:33.273Z,78.37
2024-02-10T17:28:04.439Z,78.65
2024-02-10T17:30:35.880Z,78.88
2024-02-10T17:33:07.577Z,78.83
2024-02-10T17:35:38.983Z,78.99
2024-02-10T17:38:11.151Z,79.05
2024-02-10T17:40:42.399Z,79.31
2024-02-10T17:43:33.212Z,79.34
2024-02-10T17:46:04.547Z,79.71
2024-02-10T17:48:37.762Z,79.55
2024-02-10T17:51:09.147Z,79.64
2024-02-10T17:53:39.985Z,79.92
2024-02-10T17:56:13.244Z,80.09
2024-02-10T17:58:45.144Z,80.61
2024-02-10T18:01:21.497Z,80.50
2024-02-10T18:03:52.308Z,80.39
2024-02-10T18:06:24.264Z,80.40
2024-02-10T18:08:55.139Z,80.48
2024-02-10T18:11:25.844Z,80.53
2024-02-10T18:13:56.654Z,80.57
2024-02-10T18:16:28.430Z,80.67
2024-02-10T18:18:59.382Z,80.68
2024-02-10T18:21:30.135Z,80.91
2024-02-10T18:24:05.859Z,80.78
2024-02-10T18:26:38.722Z,80.95
2024-02-10T18:29:09.642Z,80.83
2024-02-10T18:31:42.132Z,80.98
2024-02-10T18:34:13.395Z,81.25
2024-02-10T18:36:46.662Z,81.96
2024-02-10T18:39:18.182Z,83.39
2024-02-10T18:41:52.024Z,83.87
2024-02-10T18:44:23.418Z,83.85
2024-02-10T18:46:54.766Z,83.66
2024-02-10T18:49:30.887Z,83.37
2024-02-10T18:52:04.678Z,83.37
2024-02-10T18:54:35.522Z,82.14
2024-02-10T18:57:11.910Z,83.04
2024-02-10T18:59:43.027Z,82.93
2024-02-10T19:02:18.531Z,82.66
2024-02-10T19:04:51.064Z,82.91
2024-02-10T19:07:22.792Z,82.65
2024-02-10T19:09:55.602Z,82.08
2024-02-10T19:12:26.315Z,82.35
2024-02-10T19:14:58.569Z,81.32
2024-02-10T19:17:29.995Z,81.40
2024-02-10T19:20:00.914Z,80.02
2024-02-10T19:22:31.976Z,79.83
2024-02-10T19:25:06.856Z,79.46
2024-02-10T19:27:39.990Z,79.70
2024-02-10T19:30:12.463Z,79.67
2024-02-10T19:32:44.440Z,79.71
2024-02-10T19:35:20.719Z,79.80
2024-02-10T19:37:52.592Z,79.76
2024-02-10T19:40:24.559Z,79.80
2024-02-10T19:42:56.264Z,79.66
2024-02-10T19:45:27.653Z,78.79
2024-02-10T19:47:59.362Z,79.06
2024-02-10T19:50:30.473Z,78.56
2024-02-10T19:53:02.788Z,78.92
2024-02-10T19:55:34.019Z,78.98
2024-02-10T19:58:04.785Z,78.99
2024-02-10T20:00:35.609Z,78.75
2024-02-10T20:03:08.041Z,78.55
2024-02-10T20:05:39.027Z,78.52
2024-02-10T20:08:10.468Z,78.73
2024-02-10T20:10:41.810Z,78.57
2024-02-10T20:13:12.617Z,78.36
2024-02-10T20:15:43.351Z,78.55
2024-02-10T20:18:14.934Z,78.23
2024-02-10T20:20:45.873Z,77.98
2024-02-10T20:23:18.175Z,78.16
2024-02-10T20:25:49.189Z,77.65
2024-02-10T20:28:19.959Z,77.41
2024-02-10T20:30:50.768Z,77.79
2024-02-10T20:33:21.667Z,77.53
2024-02-10T20:35:54.420Z,77.79
2024-02-10T20:38:25.236Z,77.27
2024-02-10T20:40:56.063Z,77.65
2024-02-10T20:43:26.798Z,77.66
2024-02-10T20:45:57.474Z,77.57
2024-02-10T20:48:28.819Z,77.52
2024-02-10T20:50:59.769Z,77.91
2024-02-10T20:53:31.066Z,77.83
2024-02-10T20:56:02.678Z,77.40
2024-02-10T20:58:34.140Z,77.83
2024-02-10T21:01:05.282Z,77.20
2024-02-10T21:03:37.704Z,77.80
2024-02-10T21:06:09.695Z,77.89
2024-02-10T21:08:46.254Z,78.13
2024-02-10T21:11:17.009Z,77.94
2024-02-10T21:13:47.948Z,77.80
2024-02-10T21:16:18.736Z,77.37
2024-02-10T21:18:50.984Z,77.57
2024-02-10T21:21:21.990Z,77.64
2024-02-10T21:23:52.655Z,76.47
2024-02-10T21:26:23.334Z,76.35
2024-02-10T21:28:56.400Z,77.09
2024-02-10T21:31:27.326Z,76.91
2024-02-10T21:33:58.309Z,77.23
2024-02-10T21:36:29.220Z,76.70
2024-02-10T21:38:59.927Z,76.96
2024-02-10T21:41:30.668Z,76.69
2024-02-10T21:44:02.297Z,76.33
2024-02-10T21:46:33.621Z,76.81
2024-02-10T21:49:04.564Z,76.27
2024-02-10T21:51:37.750Z,76.41
2024-02-10T21:54:08.923Z,76.92
2024-02-10T21:56:43.108Z,76.88
2024-02-10T21:59:17.432Z,76.75
2024-02-10T22:01:50.676Z,77.28
2024-02-10T22:04:23.588Z,77.23
2024-02-10T22:06:55.021Z,76.98
2024-02-10T22:09:28.444Z,76.66
2024-02-10T22:12:00.155Z,76.46
2024-02-10T22:14:31.043Z,76.43
2024-02-10T22:17:01.719Z,76.31
2024-02-10T22:19:32.410Z,76.47
2024-02-10T22:22:03.661Z,76.31
2024-02-10T22:24:34.431Z,76.70
2024-02-10T22:27:05.772Z,77.12
2024-02-10T22:29:36.461Z,77.37
2024-02-10T22:32:08.121Z,77.22
2024-02-10T22:34:40.045Z,76.88
2024-02-10T22:37:13.136Z,76.51
2024-02-10T22:39:44.338Z,76.79
2024-02-10T22:42:16.137Z,76.18
2024-02-10T22:44:49.063Z,77.25
2024-02-10T22:47:20.122Z,77.15
2024-02-10T22:49:53.422Z,77.24
2024-02-10T22:52:24.130Z,77.10
2024-02-10T22:54:55.607Z,77.28
2024-02-10T22:57:26.304Z,76.98
2024-02-10T22:59:57.574Z,76.69
2024-02-10T23:02:29.868Z,76.85
2024-02-10T23:05:02.862Z,77.05
2024-02-10T23:07:35.083Z,76.36
2024-02-10T23:10:07.103Z,76.36
2024-02-10T23:12:38.653Z,76.65
2024-02-10T23:15:14.718Z,77.02
2024-02-10T23:17:47.322Z,77.02
2024-02-10T23:20:18.598Z,77.11
2024-02-10T23:22:49.291Z,77.07
2024-02-10T23:25:20.376Z,77.55
2024-02-10T23:27:51.060Z,76.47
2024-02-10T23:30:21.992Z,76.42
2024-02-10T23:32:52.865Z,76.70
2024-02-10T23:35:27.370Z,75.97
2024-02-10T23:37:58.520Z,76.97
2024-02-10T23:40:29.589Z,77.42
2024-02-10T23:43:03.340Z,77.71
2024-02-10T23:45:34.426Z,76.78
2024-02-10T23:48:05.559Z,76.32
2024-02-10T23:50:36.902Z,76.89
2024-02-10T23:53:11.544Z,76.35
2024-02-10T23:55:43.930Z,77.21
2024-02-10T23:58:14.648Z,78.15
